createdAt,value
2023-01-31T07:34:06.701Z,99.90
2023-01-31T07:36:10.559Z,99.90
2023-01-31T07:38:12.252Z,99.90
2023-01-31T07:40:15.595Z,99.90
2023-01-31T07:42:17.353Z,99.90
2023-01-31T07:44:19.302Z,99.90
2023-01-31T07:46:21.143Z,99.90
2023-01-31T07:48:26.175Z,99.90
2023-01-31T07:50:28.040Z,99.90
2023-01-31T07:52:31.073Z,99.90
2023-01-31T07:54:33.224Z,99.90
2023-01-31T07:56:35.215Z,99.90
2023-01-31T07:58:38.492Z,99.90
2023-01-31T08:00:58.976Z,99.90
2023-01-31T08:03:19.067Z,91.40
2023-01-31T08:05:21.267Z,56.10
2023-01-31T08:07:25.011Z,58.50
2023-01-31T08:09:28.173Z,49.90
2023-01-31T08:11:30.504Z,27.20
2023-01-31T08:13:33.907Z,37.80
2023-01-31T08:15:35.800Z,45.50
2023-01-31T08:17:37.563Z,42.00
2023-01-31T08:19:39.341Z,38.40
2023-01-31T08:21:41.069Z,39.70
2023-01-31T08:23:43.587Z,35.80
2023-01-31T08:25:45.343Z,5.90
2023-01-31T08:27:47.106Z,1.00
2023-01-31T08:29:48.855Z,1.00
2023-01-31T08:31:52.347Z,1.00
2023-01-31T08:33:55.730Z,1.00
2023-01-31T08:35:57.579Z,32.00
2023-01-31T08:38:14.432Z,1.00
2023-01-31T08:40:18.313Z,1.00
2023-01-31T08:42:20.030Z,1.00
2023-01-31T08:44:21.967Z,99.90
2023-01-31T08:46:25.761Z,1.00
2023-01-31T08:48:27.610Z,1.00
2023-01-31T08:50:31.916Z,1.00
2023-01-31T08:52:35.583Z,1.00
2023-01-31T08:54:37.315Z,1.00
2023-01-31T08:56:39.084Z,1.00
2023-01-31T08:58:42.802Z,1.00
2023-01-31T09:00:44.615Z,1.00
2023-01-31T09:02:53.082Z,1.00
2023-01-31T09:04:54.820Z,1.00
2023-01-31T09:06:56.641Z,1.00
2023-01-31T09:08:58.758Z,1.00
2023-01-31T09:11:01.008Z,1.00
2023-01-31T09:13:02.772Z,1.00
2023-01-31T09:15:04.854Z,1.00
2023-01-31T09:17:07.949Z,1.00
2023-01-31T09:19:09.755Z,1.00
2023-01-31T09:21:14.868Z,1.00
2023-01-31T09:23:16.738Z,1.00
2023-01-31T09:25:22.043Z,1.00
2023-01-31T09:27:29.950Z,1.00
2023-01-31T09:29:32.350Z,1.00
2023-01-31T09:31:34.531Z,1.00
2023-01-31T09:33:37.140Z,1.00
2023-01-31T09:35:39.050Z,1.00
2023-01-31T09:37:40.949Z,99.90
2023-01-31T09:39:42.636Z,1.00
2023-01-31T09:41:53.906Z,1.00
2023-01-31T09:44:00.532Z,1.00
2023-01-31T09:46:13.062Z,99.90
2023-01-31T09:48:22.807Z,99.90
2023-01-31T09:50:33.764Z,99.90
2023-01-31T09:52:35.758Z,1.00
2023-01-31T09:54:40.610Z,1.00
2023-01-31T09:56:54.572Z,99.90
2023-01-31T09:59:16.518Z,1.00
2023-01-31T10:01:23.036Z,1.00
2023-01-31T10:03:56.242Z,1.00
2023-01-31T10:06:16.236Z,1.00
2023-01-31T10:08:36.803Z,1.00
2023-01-31T10:10:41.314Z,99.90
2023-01-31T10:12:53.739Z,99.90
2023-01-31T10:15:04.061Z,99.90
2023-01-31T10:17:38.520Z,99.90
2023-01-31T10:20:03.041Z,1.00
2023-01-31T10:22:10.432Z,1.00
2023-01-31T10:24:26.596Z,1.00
2023-01-31T10:26:34.929Z,1.00
2023-01-31T10:28:48.386Z,1.00
2023-01-31T10:31:15.061Z,1.00
2023-01-31T10:33:39.414Z,1.00
2023-01-31T10:35:44.105Z,1.00
2023-01-31T10:38:01.683Z,1.00
2023-01-31T10:40:28.988Z,1.00
2023-01-31T10:42:39.173Z,1.00
2023-01-31T10:44:59.245Z,1.00
2023-01-31T10:47:01.184Z,1.00
2023-01-31T10:49:03.591Z,1.00
2023-01-31T10:51:27.296Z,1.00
2023-01-31T10:53:35.092Z,1.00
2023-01-31T10:56:03.280Z,99.90
2023-01-31T10:58:08.171Z,99.90
2023-01-31T11:00:36.219Z,99.90
2023-01-31T11:02:39.381Z,1.00
2023-01-31T11:04:42.925Z,1.00
2023-01-31T11:06:44.598Z,1.00
2023-01-31T11:08:54.117Z,99.90
2023-01-31T11:10:57.930Z,99.90
2023-01-31T11:13:05.400Z,1.00
2023-01-31T11:15:16.931Z,1.00
2023-01-31T11:17:21.483Z,1.00
2023-01-31T11:19:28.431Z,1.00
2023-01-31T11:21:34.061Z,1.00
2023-01-31T11:23:36.506Z,99.90
2023-01-31T11:25:38.572Z,1.00
2023-01-31T11:27:43.338Z,99.90
2023-01-31T11:29:51.292Z,99.90
2023-01-31T11:31:53.990Z,99.90
2023-01-31T11:33:59.300Z,99.90
2023-01-31T11:36:08.659Z,1.00
2023-01-31T11:38:10.622Z,1.00
2023-01-31T11:40:15.434Z,1.00
2023-01-31T11:42:17.875Z,99.90
2023-01-31T11:44:21.860Z,99.90
2023-01-31T11:46:23.769Z,99.90
2023-01-31T11:48:47.668Z,1.00
2023-01-31T11:50:55.085Z,1.00
2023-01-31T11:53:02.575Z,1.00
2023-01-31T11:55:09.161Z,1.00
2023-01-31T11:57:21.890Z,1.00
2023-01-31T11:59:29.007Z,1.00
2023-01-31T12:01:31.211Z,1.00
2023-01-31T12:03:33.530Z,1.00
2023-01-31T12:05:39.302Z,99.90
2023-01-31T12:07:54.393Z,99.90
2023-01-31T12:09:56.413Z,99.90
2023-01-31T12:12:06.416Z,1.00
2023-01-31T12:14:17.640Z,99.90
2023-01-31T12:16:26.633Z,1.00
2023-01-31T12:18:43.616Z,1.00
2023-01-31T12:20:53.445Z,1.00
2023-01-31T12:23:14.376Z,1.00
2023-01-31T12:25:42.516Z,1.00
2023-01-31T12:28:09.826Z,1.00
2023-01-31T12:30:27.570Z,1.00
2023-01-31T12:32:38.109Z,1.00
2023-01-31T12:35:01.638Z,1.00
2023-01-31T12:37:40.849Z,1.00
2023-01-31T12:40:11.855Z,1.00
2023-01-31T12:42:41.335Z,1.00
2023-01-31T12:44:48.229Z,99.90
2023-01-31T12:47:39.399Z,99.90
2023-01-31T12:49:56.506Z,99.90
2023-01-31T12:52:35.822Z,99.90
2023-01-31T12:54:59.024Z,99.90
2023-01-31T12:57:22.335Z,1.00
2023-01-31T12:59:23.990Z,1.00
2023-01-31T13:01:39.581Z,1.00
2023-01-31T13:03:53.186Z,1.00
2023-01-31T13:05:54.924Z,1.00
2023-01-31T13:08:06.299Z,1.00
2023-01-31T13:10:26.848Z,1.00
2023-01-31T13:12:35.728Z,1.00
2023-01-31T13:14:49.200Z,99.60
2023-01-31T13:16:58.390Z,99.90
2023-01-31T13:19:13.424Z,51.20
2023-01-31T13:21:22.659Z,99.90
2023-01-31T13:23:31.597Z,90.40
2023-01-31T13:25:42.189Z,44.20
2023-01-31T13:27:54.800Z,8.00
2023-01-31T13:30:05.793Z,1.00
2023-01-31T13:32:19.331Z,1.00
2023-01-31T13:34:29.479Z,1.00
2023-01-31T13:36:43.409Z,1.00
2023-01-31T13:38:46.167Z,99.90
2023-01-31T13:40:52.568Z,99.90
2023-01-31T13:42:57.246Z,49.90
2023-01-31T13:45:04.808Z,1.00
2023-01-31T13:47:32.206Z,99.90
2023-01-31T13:49:40.423Z,99.90
2023-01-31T13:51:49.315Z,99.90
2023-01-31T13:54:06.590Z,99.90
2023-01-31T13:56:11.618Z,99.90
2023-01-31T13:58:22.498Z,99.90
2023-01-31T14:00:43.191Z,99.90
2023-01-31T14:03:19.298Z,99.90
2023-01-31T14:06:00.133Z,99.90
2023-01-31T14:08:39.124Z,99.90
2023-01-31T14:10:43.520Z,99.90
2023-01-31T14:12:45.450Z,99.90
2023-01-31T14:14:49.198Z,99.90
2023-01-31T14:16:52.841Z,99.90
2023-01-31T14:18:54.935Z,99.90
2023-01-31T14:20:56.762Z,99.90
2023-01-31T14:23:31.809Z,99.90
2023-01-31T14:25:42.768Z,99.90
2023-01-31T14:28:01.622Z,99.90
2023-01-31T14:30:06.186Z,99.90
2023-01-31T14:32:15.736Z,99.90
2023-01-31T14:34:21.062Z,99.90
2023-01-31T14:36:31.592Z,99.90
2023-01-31T14:39:04.321Z,99.90
2023-01-31T14:41:36.647Z,99.90
2023-01-31T14:44:06.459Z,99.90
2023-01-31T14:46:26.222Z,99.90
2023-01-31T14:48:40.399Z,1.00
2023-01-31T14:51:19.890Z,1.00
2023-01-31T14:54:05.011Z,1.00
2023-01-31T14:56:26.770Z,1.00
2023-01-31T14:58:31.735Z,99.90
2023-01-31T15:00:37.808Z,1.00
2023-01-31T15:02:45.881Z,1.00
2023-01-31T15:05:02.041Z,1.00
2023-01-31T15:07:03.897Z,1.00
2023-01-31T15:09:24.733Z,1.00
2023-01-31T15:11:40.720Z,1.00
2023-01-31T15:13:54.358Z,1.00
2023-01-31T15:15:58.147Z,1.00
2023-01-31T15:18:04.032Z,1.00
2023-01-31T15:20:14.972Z,1.00
2023-01-31T15:22:18.348Z,1.00
2023-01-31T15:24:40.543Z,1.00
2023-01-31T15:26:42.366Z,1.00
2023-01-31T15:28:44.869Z,1.00
2023-01-31T15:30:48.663Z,1.00
2023-01-31T15:32:56.744Z,1.00
2023-01-31T15:35:24.849Z,1.00
2023-01-31T15:37:35.375Z,1.00
2023-01-31T15:39:53.030Z,1.00
2023-01-31T15:41:55.004Z,1.00
2023-01-31T15:44:09.877Z,1.00
2023-01-31T15:46:29.743Z,1.00
2023-01-31T15:48:31.458Z,1.00
2023-01-31T15:50:34.330Z,1.00
2023-01-31T15:52:36.063Z,1.00
2023-01-31T15:54:38.611Z,1.00
2023-01-31T15:56:42.164Z,1.00
2023-01-31T15:58:48.256Z,1.00
2023-01-31T16:00:53.460Z,1.00
2023-01-31T16:03:00.856Z,1.00
2023-01-31T16:05:06.457Z,1.00
2023-01-31T16:07:16.718Z,1.00
2023-01-31T16:09:26.224Z,1.00
2023-01-31T16:11:33.459Z,1.00
2023-01-31T16:13:38.470Z,1.00
2023-01-31T16:15:41.315Z,1.00
2023-01-31T16:17:44.647Z,1.00
2023-01-31T16:19:49.869Z,1.00
2023-01-31T16:21:52.659Z,1.00
2023-01-31T16:24:18.767Z,1.00
2023-01-31T16:26:26.124Z,1.00
2023-01-31T16:28:36.009Z,1.00
2023-01-31T16:30:41.523Z,1.00
2023-01-31T16:32:44.174Z,1.00
2023-01-31T16:34:57.534Z,1.00
2023-01-31T16:37:09.865Z,1.00
2023-01-31T16:39:23.019Z,1.00
2023-01-31T16:41:50.570Z,1.00
2023-01-31T16:43:52.451Z,1.00
2023-01-31T16:46:08.199Z,1.00
2023-01-31T16:48:24.624Z,1.00
2023-01-31T16:50:42.863Z,1.00
2023-01-31T16:52:52.533Z,1.00
2023-01-31T16:55:00.155Z,1.00
2023-01-31T16:57:01.855Z,1.00
2023-01-31T16:59:04.065Z,1.00
2023-01-31T17:01:23.133Z,1.00
2023-01-31T17:03:25.893Z,1.00
2023-01-31T17:05:37.666Z,1.00
2023-01-31T17:07:44.445Z,1.00
2023-01-31T17:09:47.255Z,1.00
2023-01-31T17:11:49.198Z,1.00
2023-01-31T17:13:50.986Z,1.00
2023-01-31T17:15:52.802Z,1.00
2023-01-31T17:17:55.617Z,1.00
2023-01-31T17:19:57.455Z,1.00
2023-01-31T17:21:59.896Z,1.00
2023-01-31T17:24:01.713Z,4.70
2023-01-31T17:26:03.538Z,1.00
2023-01-31T17:28:06.008Z,15.80
2023-01-31T17:30:08.555Z,21.50
2023-01-31T17:32:13.207Z,37.90
2023-01-31T17:34:16.061Z,57.40
2023-01-31T17:36:17.911Z,78.70
2023-01-31T17:38:20.214Z,95.50
2023-01-31T17:40:22.251Z,99.90
2023-01-31T17:42:24.018Z,99.90
2023-01-31T17:44:25.820Z,99.90
2023-01-31T17:46:28.602Z,99.90
2023-01-31T17:48:30.390Z,99.90
2023-01-31T17:50:32.390Z,99.90
2023-01-31T17:52:34.143Z,99.90
2023-01-31T17:54:36.143Z,99.90
2023-01-31T17:56:38.874Z,99.90
2023-01-31T17:58:40.887Z,99.90
2023-01-31T18:00:42.700Z,99.90
2023-01-31T18:02:45.178Z,99.90
2023-01-31T18:04:47.265Z,95.50
2023-01-31T18:06:48.999Z,98.20
2023-01-31T18:08:52.418Z,99.90
2023-01-31T18:10:55.231Z,94.70
2023-01-31T18:12:56.931Z,99.90
2023-01-31T18:14:58.869Z,98.40
2023-01-31T18:17:00.856Z,93.10
2023-01-31T18:19:02.702Z,88.00
2023-01-31T18:21:05.522Z,62.80
2023-01-31T18:23:07.279Z,57.50
2023-01-31T18:25:09.235Z,51.60
2023-01-31T18:27:14.587Z,57.10
2023-01-31T18:29:19.894Z,35.30
2023-01-31T18:31:21.840Z,35.10
2023-01-31T18:33:24.001Z,23.30
2023-01-31T18:35:25.897Z,31.80
2023-01-31T18:37:27.809Z,17.00
2023-01-31T18:39:29.602Z,11.30
2023-01-31T18:41:31.678Z,11.90
2023-01-31T18:43:33.550Z,1.00
2023-01-31T18:45:37.869Z,1.00
2023-01-31T18:47:39.586Z,1.00
2023-01-31T18:49:41.949Z,1.00
2023-01-31T18:51:43.963Z,1.00
2023-01-31T18:53:46.985Z,1.00
2023-01-31T18:55:48.737Z,1.00
2023-01-31T18:57:50.615Z,6.90
2023-01-31T18:59:52.428Z,1.90
2023-01-31T19:01:54.181Z,1.00
2023-01-31T19:03:58.108Z,1.00
2023-01-31T19:06:24.047Z,1.00
2023-01-31T19:08:25.769Z,1.00
2023-01-31T19:10:27.651Z,1.00
2023-01-31T19:12:29.610Z,1.00
2023-01-31T19:14:31.323Z,1.00
2023-01-31T19:16:36.995Z,1.00
2023-01-31T19:18:39.696Z,1.00
2023-01-31T19:20:41.616Z,2.90
2023-01-31T19:22:43.280Z,12.70
2023-01-31T19:24:45.469Z,24.80
2023-01-31T19:26:47.180Z,21.00
2023-01-31T19:28:49.418Z,18.60
2023-01-31T19:30:52.172Z,23.60
2023-01-31T19:32:53.812Z,21.50
2023-01-31T19:34:55.846Z,21.90
2023-01-31T19:36:57.581Z,13.10
2023-01-31T19:39:00.827Z,19.10
2023-01-31T19:41:13.740Z,26.70
2023-01-31T19:43:15.599Z,28.10
2023-01-31T19:45:18.111Z,25.30
2023-01-31T19:47:25.007Z,23.30
2023-01-31T19:49:26.745Z,24.70
2023-01-31T19:51:28.635Z,20.20
2023-01-31T19:53:30.626Z,26.20
2023-01-31T19:55:33.412Z,14.20
2023-01-31T19:57:35.110Z,21.50
2023-01-31T19:59:36.946Z,22.60
2023-01-31T20:01:38.833Z,38.10
2023-01-31T20:03:40.653Z,57.80
2023-01-31T20:05:42.411Z,84.80
2023-01-31T20:07:44.239Z,96.80
2023-01-31T20:09:45.905Z,99.90
2023-01-31T20:11:47.681Z,99.90
2023-01-31T20:13:51.048Z,99.90
2023-01-31T20:16:11.332Z,99.90
2023-01-31T20:18:13.172Z,99.90
2023-01-31T20:20:14.965Z,99.90
2023-01-31T20:22:17.831Z,99.90
2023-01-31T20:24:19.694Z,99.90
2023-01-31T20:26:24.749Z,99.90
2023-01-31T20:28:27.288Z,99.90
2023-01-31T20:30:28.933Z,99.90
2023-01-31T20:32:30.753Z,99.90
2023-01-31T20:34:34.369Z,99.90
2023-01-31T20:36:36.405Z,99.90
2023-01-31T20:38:39.021Z,99.90
2023-01-31T20:40:41.031Z,99.90
2023-01-31T20:42:42.930Z,99.90
2023-01-31T20:44:44.577Z,99.90
2023-01-31T20:46:46.409Z,99.90
2023-01-31T20:48:48.183Z,99.90
2023-01-31T20:50:56.966Z,99.90
2023-01-31T20:52:58.803Z,99.90
2023-01-31T20:55:00.434Z,99.90
2023-01-31T20:57:02.105Z,99.90
2023-01-31T20:59:04.055Z,99.90
2023-01-31T21:01:07.100Z,99.90
2023-01-31T21:03:09.155Z,99.90
2023-01-31T21:05:11.997Z,99.90
2023-01-31T21:07:13.668Z,99.90
2023-01-31T21:09:15.453Z,99.90
2023-01-31T21:11:17.272Z,99.90
2023-01-31T21:13:20.561Z,99.90
2023-01-31T21:15:22.648Z,99.90
2023-01-31T21:17:37.826Z,99.90
2023-01-31T21:19:41.230Z,99.90
2023-01-31T21:21:43.074Z,99.90
2023-01-31T21:23:44.722Z,99.90
2023-01-31T21:25:46.497Z,99.90
2023-01-31T21:27:50.751Z,99.90
2023-01-31T21:29:52.430Z,99.90
2023-01-31T21:31:54.294Z,99.90
2023-01-31T21:33:56.875Z,99.90
2023-01-31T21:36:00.400Z,99.90
2023-01-31T21:38:02.185Z,99.90
2023-01-31T21:40:04.126Z,99.90
2023-01-31T21:42:20.116Z,99.90
2023-01-31T21:44:22.067Z,99.90
2023-01-31T21:46:24.772Z,99.90
2023-01-31T21:48:29.331Z,99.90
2023-01-31T21:50:31.038Z,99.90
2023-01-31T21:52:32.758Z,99.90
2023-01-31T21:54:34.535Z,99.90
2023-01-31T21:56:36.584Z,99.90
2023-01-31T21:58:39.460Z,99.90
2023-01-31T22:00:43.826Z,99.90
2023-01-31T22:02:51.927Z,99.90
2023-01-31T22:04:53.951Z,99.90
2023-01-31T22:06:55.891Z,99.90
2023-01-31T22:08:59.837Z,99.90
2023-01-31T22:11:02.207Z,99.90
2023-01-31T22:13:04.098Z,99.90
2023-01-31T22:15:06.234Z,99.90
2023-01-31T22:17:07.957Z,99.90
2023-01-31T22:19:12.728Z,99.90
2023-01-31T22:21:29.870Z,99.90
2023-01-31T22:23:32.676Z,99.90
2023-01-31T22:25:37.241Z,99.90
2023-01-31T22:27:39.170Z,99.90
2023-01-31T22:29:41.678Z,99.90
2023-01-31T22:31:44.408Z,99.90
2023-01-31T22:33:46.733Z,99.90
2023-01-31T22:35:48.552Z,99.90
2023-01-31T22:37:50.249Z,99.90
2023-01-31T22:39:51.951Z,99.90
2023-01-31T22:41:53.635Z,99.90
2023-01-31T22:43:55.940Z,99.90
2023-01-31T22:45:59.015Z,99.90
2023-01-31T22:48:00.800Z,99.90
2023-01-31T22:50:02.523Z,99.90
2023-01-31T22:52:04.465Z,99.90
2023-01-31T22:54:06.235Z,99.90
2023-01-31T22:56:12.009Z,99.90
2023-01-31T22:58:15.203Z,99.90
2023-01-31T23:00:17.226Z,99.90
2023-01-31T23:02:19.019Z,99.90
2023-01-31T23:04:21.524Z,99.90
2023-01-31T23:06:23.600Z,99.90
2023-01-31T23:08:25.301Z,99.90
2023-01-31T23:10:28.640Z,99.90
2023-01-31T23:12:30.458Z,99.90
2023-01-31T23:14:32.124Z,99.90
2023-01-31T23:16:52.391Z,99.90
2023-01-31T23:18:54.150Z,99.90
2023-01-31T23:21:05.953Z,99.90
2023-01-31T23:23:07.694Z,99.90
2023-01-31T23:25:11.796Z,99.90
2023-01-31T23:27:13.593Z,99.90
2023-01-31T23:29:15.603Z,99.90
2023-01-31T23:31:17.423Z,99.90
2023-01-31T23:33:19.235Z,99.90
2023-01-31T23:35:21.115Z,99.90
2023-01-31T23:37:23.023Z,99.90
2023-01-31T23:39:24.873Z,99.90
2023-01-31T23:41:26.579Z,99.90
2023-01-31T23:43:28.335Z,99.90
2023-01-31T23:45:30.017Z,99.90
2023-01-31T23:47:31.661Z,99.90
2023-01-31T23:49:33.361Z,99.90
2023-01-31T23:51:35.311Z,99.90
2023-01-31T23:53:37.348Z,99.90
2023-01-31T23:55:39.101Z,99.90
2023-01-31T23:57:40.787Z,99.90
2023-01-31T23:59:42.466Z,99.90
